Time;durP1;ratioP1;P1;durP2;ratioP2;P2;SDS_P1;SDS_P2;PMS_P1;PMS_P2;Temp;Humidity;BMP_temperature;BMP_pressure;BME280_temperature;BME280_humidity;BME280_pressure;Samples;Min_cycle;Max_cycle;Signal;HPM_P1;HPM_P2
2021/08/21 00:01:46;;;;;;;;;;;;;;;18.60;73.79;101575.94;5095022;28;1888;-45
2021/08/21 00:04:15;;;;;;;;;;;;;;;18.59;72.35;101577.78;5095199;28;1009;-45
2021/08/21 00:06:40;;;;;;;;;;;;;;;18.58;73.15;101578.75;5095298;28;1140;-42
2021/08/21 00:09:05;;;;;;;;;;;;;;;18.57;72.73;101578.88;5094581;28;1889;-43
2021/08/21 00:11:30;;;;;;;;;;;;;;;18.56;72.38;101577.16;5095218;28;838;-45
2021/08/21 00:13:55;;;;;;;;;;;;;;;18.56;72.54;101569.06;5095009;28;1961;-46
2021/08/21 00:16:20;;;;;;;;;;;;;;;18.55;72.82;101572.75;5097733;28;1025;-46
2021/08/21 00:18:45;;;;;;;;;;;;;;;18.53;73.11;101570.19;5099604;28;1789;-45
2021/08/21 00:21:13;;;;;;;;;;;;;;;18.54;72.02;101571.03;5098899;28;1897;-47
2021/08/21 00:23:38;;;;;;;;;;;;;;;18.54;73.46;101571.03;5099351;28;846;-46
2021/08/21 00:26:03;;;;;;;;;;;;;;;18.52;72.87;101573.88;5099195;28;993;-43
2021/08/21 00:28:28;;;;;;;;;;;;;;;18.51;71.46;101574.84;5098841;28;1615;-44
2021/08/21 00:30:53;;;;;;;;;;;;;;;18.52;72.70;101568.47;5099197;28;906;-43
2021/08/21 00:33:19;;;;;;;;;;;;;;;18.51;72.02;101571.31;5098186;28;1979;-45
2021/08/21 00:35:44;;;;;;;;;;;;;;;18.50;72.21;101575.00;5098632;28;1894;-42
2021/08/21 00:38:09;;;;;;;;;;;;;;;18.50;71.92;101575.00;5099001;28;1604;-44
2021/08/21 00:40:34;;;;;;;;;;;;;;;18.50;72.08;101569.59;5098602;28;1911;-43
2021/08/21 00:42:59;;;;;;;;;;;;;;;18.49;72.03;101575.97;5098442;28;1985;-46
2021/08/21 00:45:24;;;;;;;;;;;;;;;18.47;71.67;101568.00;5098417;28;878;-45
2021/08/21 00:47:49;;;;;;;;;;;;;;;18.48;72.11;101571.56;5098890;28;822;-42
2021/08/21 00:50:14;;;;;;;;;;;;;;;18.46;72.67;101566.28;5098612;28;990;-45
2021/08/21 00:52:39;;;;;;;;;;;;;;;18.46;72.00;101568.13;5098312;28;1929;-45
2021/08/21 00:55:05;;;;;;;;;;;;;;;18.45;72.77;101556.47;5079994;28;1902;-48
2021/08/21 00:57:30;;;;;;;;;;;;;;;18.45;73.01;101563.75;5098396;28;1576;-45
2021/08/21 00:59:55;;;;;;;;;;;;;;;18.45;73.27;101566.47;5098192;28;1947;-46
2021/08/21 01:02:20;;;;;;;;;;;;;;;18.44;73.75;101562.03;5098658;28;889;-43
2021/08/21 01:04:46;;;;;;;;;;;;;;;18.43;73.78;101558.50;5098430;28;996;-44
2021/08/21 01:07:11;;;;;;;;;;;;;;;18.43;72.40;101557.63;5098295;28;1991;-44
2021/08/21 01:09:36;;;;;;;;;;;;;;;18.43;72.37;101558.50;5098228;28;1012;-43
2021/08/21 01:12:01;;;;;;;;;;;;;;;18.43;72.55;101561.19;5098255;28;825;-46
2021/08/21 01:14:27;;;;;;;;;;;;;;;18.43;72.71;101557.63;5098070;28;1889;-44
2021/08/21 01:16:52;;;;;;;;;;;;;;;18.42;72.88;101566.72;5098792;28;870;-43
2021/08/21 01:19:18;;;;;;;;;;;;;;;18.42;73.17;101553.22;5097175;28;1727;-44
2021/08/21 01:21:43;;;;;;;;;;;;;;;18.39;72.48;101549.78;5098413;28;1647;-45
2021/08/21 01:24:08;;;;;;;;;;;;;;;18.40;72.20;101550.66;5097711;28;826;-44
2021/08/21 01:26:33;;;;;;;;;;;;;;;18.40;72.19;101547.94;5096906;28;1925;-42
2021/08/21 01:28:58;;;;;;;;;;;;;;;18.38;73.20;101553.47;5097790;28;1059;-44
2021/08/21 01:31:23;;;;;;;;;;;;;;;18.39;73.26;101551.63;5098065;28;1020;-40
2021/08/21 01:33:48;;;;;;;;;;;;;;;18.37;72.73;101549.06;5097903;28;1894;-41
2021/08/21 01:36:13;;;;;;;;;;;;;;;18.36;72.50;101541.97;5096341;28;1807;-41
2021/08/21 01:38:38;;;;;;;;;;;;;;;18.36;72.84;101547.34;5096654;28;1617;-44
2021/08/21 01:41:03;;;;;;;;;;;;;;;18.35;72.28;101545.66;5097411;28;866;-43
2021/08/21 01:43:29;;;;;;;;;;;;;;;18.37;72.43;101543.69;5097344;28;891;-40
2021/08/21 01:45:54;;;;;;;;;;;;;;;18.35;72.26;101548.34;5097466;28;786;-47
2021/08/21 01:48:19;;;;;;;;;;;;;;;18.34;72.39;101546.63;5097207;28;1873;-47
2021/08/21 01:50:44;;;;;;;;;;;;;;;18.34;72.55;101545.78;5079205;28;2426;-47
2021/08/21 01:53:09;;;;;;;;;;;;;;;18.33;72.96;101546.75;5097410;28;906;-48
2021/08/21 01:55:34;;;;;;;;;;;;;;;18.33;72.75;101541.38;5098312;28;1975;-48
2021/08/21 01:57:59;;;;;;;;;;;;;;;18.32;72.03;101539.66;5096962;28;863;-44
2021/08/21 02:00:28;;;;;;;;;;;;;;;18.31;72.53;101549.59;5097042;28;1973;-48
2021/08/21 02:02:53;;;;;;;;;;;;;;;18.30;72.83;101537.09;5097067;28;907;-48
2021/08/21 02:05:18;;;;;;;;;;;;;;;18.30;72.36;101547.88;5096692;28;957;-45
2021/08/21 02:07:43;;;;;;;;;;;;;;;18.31;73.57;101546.03;5097337;28;997;-46
2021/08/21 02:10:08;;;;;;;;;;;;;;;18.30;72.47;101547.03;5097144;28;1080;-45
2021/08/21 02:12:33;;;;;;;;;;;;;;;18.30;72.45;101552.41;5097139;28;1997;-43
2021/08/21 02:14:58;;;;;;;;;;;;;;;18.31;72.63;101556.84;5096782;28;1960;-46
2021/08/21 02:17:23;;;;;;;;;;;;;;;18.29;72.47;101550.72;5096559;28;863;-43
2021/08/21 02:19:48;;;;;;;;;;;;;;;18.29;72.36;101550.72;5096995;28;1044;-41
2021/08/21 02:22:13;;;;;;;;;;;;;;;18.29;72.82;101551.56;5096447;28;1867;-43
2021/08/21 02:24:40;;;;;;;;;;;;;;;18.29;72.67;101550.72;5097117;28;957;-42
2021/08/21 02:27:06;;;;;;;;;;;;;;;18.29;72.82;101550.72;5096641;28;2076;-40
2021/08/21 02:29:31;;;;;;;;;;;;;;;18.28;73.32;101554.38;5096302;28;818;-41
2021/08/21 02:31:57;;;;;;;;;;;;;;;18.26;72.39;101551.84;5096476;28;1882;-42
2021/08/21 02:34:22;;;;;;;;;;;;;;;18.26;72.89;101548.31;5097018;28;1898;-45
2021/08/21 02:36:47;;;;;;;;;;;;;;;18.27;72.95;101552.72;5096346;28;854;-46
2021/08/21 02:39:14;;;;;;;;;;;;;;;18.26;72.90;101551.00;5095579;28;926;-45
2021/08/21 02:41:39;;;;;;;;;;;;;;;18.25;73.11;101552.84;5096239;28;2060;-44
2021/08/21 02:44:04;;;;;;;;;;;;;;;18.25;73.23;101544.75;5096416;28;987;-41
2021/08/21 02:46:29;;;;;;;;;;;;;;;18.25;72.93;101549.28;5096465;28;917;-42
2021/08/21 02:48:54;;;;;;;;;;;;;;;18.25;72.65;101550.13;5095943;28;1044;-44
2021/08/21 02:51:20;;;;;;;;;;;;;;;18.25;73.52;101550.13;5096265;28;1875;-46
2021/08/21 02:53:45;;;;;;;;;;;;;;;18.25;73.28;101547.44;5095862;28;1914;-42
2021/08/21 02:56:10;;;;;;;;;;;;;;;18.25;72.88;101549.28;5096041;28;861;-43
2021/08/21 02:58:35;;;;;;;;;;;;;;;18.25;72.48;101554.69;5096192;28;1056;-44
2021/08/21 03:01:00;;;;;;;;;;;;;;;18.22;73.09;101553.09;5096340;28;941;-42
2021/08/21 03:03:25;;;;;;;;;;;;;;;18.23;72.45;101544.03;5096134;28;1902;-43
2021/08/21 03:05:50;;;;;;;;;;;;;;;18.23;72.66;101544.03;5095734;28;933;-46
2021/08/21 03:08:15;;;;;;;;;;;;;;;18.22;72.86;101541.44;5096063;28;786;-42
2021/08/21 03:10:41;;;;;;;;;;;;;;;18.21;72.74;101537.03;5096017;28;832;-45
2021/08/21 03:13:06;;;;;;;;;;;;;;;18.22;72.48;101545.00;5095961;28;2094;-41
2021/08/21 03:15:31;;;;;;;;;;;;;;;18.22;73.43;101547.69;5095616;28;1903;-41
2021/08/21 03:17:56;;;;;;;;;;;;;;;18.21;72.42;101540.59;5095484;28;1838;-45
2021/08/21 03:20:21;;;;;;;;;;;;;;;18.20;72.69;101549.66;5095758;28;1009;-41
2021/08/21 03:22:46;;;;;;;;;;;;;;;18.20;72.35;101546.13;5095783;28;826;-46
2021/08/21 03:25:11;;;;;;;;;;;;;;;18.18;73.57;101538.16;5095661;28;1678;-46
2021/08/21 03:27:36;;;;;;;;;;;;;;;18.21;73.15;101553.22;5077266;28;819;-44
2021/08/21 03:30:01;;;;;;;;;;;;;;;18.18;72.70;101548.94;5095849;28;1051;-42
2021/08/21 03:32:26;;;;;;;;;;;;;;;18.19;73.28;101550.66;5095429;28;1814;-44
2021/08/21 03:34:51;;;;;;;;;;;;;;;18.17;73.07;101547.22;5077434;28;1894;-41
2021/08/21 03:37:17;;;;;;;;;;;;;;;18.18;73.36;101548.09;5095399;28;1080;-44
2021/08/21 03:39:42;;;;;;;;;;;;;;;18.18;73.27;101545.38;5095203;28;917;-41
2021/08/21 03:42:07;;;;;;;;;;;;;;;18.17;72.58;101547.22;5095454;28;1064;-40
2021/08/21 03:44:32;;;;;;;;;;;;;;;18.16;72.52;101537.41;5095252;28;1886;-44
2021/08/21 03:46:57;;;;;;;;;;;;;;;18.17;73.54;101540.97;5095008;28;1876;-44
2021/08/21 03:49:22;;;;;;;;;;;;;;;18.16;73.11;101533.88;5095298;28;997;-40
2021/08/21 03:51:47;;;;;;;;;;;;;;;18.15;72.73;101533.00;5076874;28;941;-44
2021/08/21 03:54:12;;;;;;;;;;;;;;;18.14;73.02;101535.84;5094628;28;1977;-41
2021/08/21 03:56:37;;;;;;;;;;;;;;;18.13;73.17;101537.69;5095201;28;1088;-43
2021/08/21 03:59:04;;;;;;;;;;;;;;;18.15;72.98;101537.56;5094922;28;2031;-42
2021/08/21 04:01:29;;;;;;;;;;;;;;;18.15;72.77;101537.56;5095123;28;834;-46
2021/08/21 04:03:54;;;;;;;;;;;;;;;18.13;72.92;101534.97;5095069;28;1527;-42
2021/08/21 04:06:19;;;;;;;;;;;;;;;18.13;73.16;101534.13;5094912;28;1844;-41
2021/08/21 04:08:45;;;;;;;;;;;;;;;18.12;73.20;101540.50;5095076;28;807;-43
2021/08/21 04:11:10;;;;;;;;;;;;;;;18.12;73.42;101538.66;5094695;28;910;-41
2021/08/21 04:13:35;;;;;;;;;;;;;;;18.12;72.90;101537.81;5094466;28;1914;-44
2021/08/21 04:16:00;;;;;;;;;;;;;;;18.12;73.41;101533.28;5095083;28;1032;-47
2021/08/21 04:18:25;;;;;;;;;;;;;;;18.11;72.97;101536.97;5095083;28;927;-43
2021/08/21 04:20:50;;;;;;;;;;;;;;;18.10;72.96;101535.25;5095415;28;985;-42
2021/08/21 04:23:15;;;;;;;;;;;;;;;18.11;72.88;101531.56;5095260;28;1628;-43
2021/08/21 04:25:40;;;;;;;;;;;;;;;18.10;73.21;101531.69;5095016;28;981;-46
2021/08/21 04:28:05;;;;;;;;;;;;;;;18.10;72.92;101532.53;5094961;28;2012;-44
2021/08/21 04:30:30;;;;;;;;;;;;;;;18.10;73.05;101532.53;5095267;28;929;-41
2021/08/21 04:32:55;;;;;;;;;;;;;;;18.08;72.92;101529.16;5095438;28;1430;-43
2021/08/21 04:35:20;;;;;;;;;;;;;;;18.10;72.83;101529.00;5095005;28;1969;-45
2021/08/21 04:37:45;;;;;;;;;;;;;;;18.10;72.54;101529.84;5094696;28;909;-41
2021/08/21 04:40:10;;;;;;;;;;;;;;;18.11;73.23;101530.69;5094830;28;997;-42
2021/08/21 04:42:35;;;;;;;;;;;;;;;18.08;72.89;101523.75;5094732;28;2001;-46
2021/08/21 04:45:01;;;;;;;;;;;;;;;18.09;72.29;101533.56;5094988;28;881;-45
2021/08/21 04:47:26;;;;;;;;;;;;;;;18.10;73.28;101529.00;5094755;28;859;-44
2021/08/21 04:49:51;;;;;;;;;;;;;;;18.08;73.09;101526.44;5076435;28;901;-43
2021/08/21 04:52:16;;;;;;;;;;;;;;;18.06;72.74;101524.88;5094790;28;1603;-41
2021/08/21 04:54:41;;;;;;;;;;;;;;;18.06;73.32;101517.63;5095014;28;1989;-45
2021/08/21 04:57:06;;;;;;;;;;;;;;;18.08;72.73;101526.44;5094550;28;2004;-45
2021/08/21 04:59:31;;;;;;;;;;;;;;;18.08;72.67;101521.06;5094758;28;1048;-44
2021/08/21 05:01:56;;;;;;;;;;;;;;;18.08;73.09;101531.84;5095533;28;2054;-40
2021/08/21 05:04:21;;;;;;;;;;;;;;;18.08;73.04;101531.00;5098514;28;857;-41
2021/08/21 05:06:47;;;;;;;;;;;;;;;18.08;72.80;101537.25;5098151;28;799;-43
2021/08/21 05:09:12;;;;;;;;;;;;;;;18.08;72.69;101542.63;5098284;28;1885;-41
2021/08/21 05:11:37;;;;;;;;;;;;;;;18.06;73.11;101536.50;5097903;28;863;-45
2021/08/21 05:14:02;;;;;;;;;;;;;;;18.08;73.26;101542.63;5097905;28;1901;-40
2021/08/21 05:16:27;;;;;;;;;;;;;;;18.07;72.68;101537.38;5097793;28;1024;-42
2021/08/21 05:18:57;;;;;;;;;;;;;;;18.08;73.38;101533.69;5097693;28;953;-43
2021/08/21 05:21:29;;;;;;;;;;;;;;;18.08;73.25;101542.63;5098566;28;858;-43
2021/08/21 05:23:54;;;;;;;;;;;;;;;18.08;73.11;101537.25;5097829;28;1783;-40
2021/08/21 05:26:19;;;;;;;;;;;;;;;18.08;73.29;101534.53;5097715;28;1016;-43
2021/08/21 05:28:44;;;;;;;;;;;;;;;18.09;73.12;101538.09;5096132;28;862;-46
2021/08/21 05:31:09;;;;;;;;;;;;;;;18.08;74.52;101536.38;5097257;28;1374;-45
2021/08/21 05:33:34;;;;;;;;;;;;;;;18.08;73.33;101539.09;5097883;28;1929;-44
2021/08/21 05:35:59;;;;;;;;;;;;;;;18.10;73.42;101551.44;5097886;28;817;-44
2021/08/21 05:38:24;;;;;;;;;;;;;;;18.11;73.94;101547.75;5097550;28;2091;-46
2021/08/21 05:40:49;;;;;;;;;;;;;;;18.10;73.55;101539.78;5097326;28;1525;-46
2021/08/21 05:43:14;;;;;;;;;;;;;;;18.10;73.01;101550.56;5097028;28;1557;-45
2021/08/21 05:45:40;;;;;;;;;;;;;;;18.07;73.65;101540.94;5097272;28;1757;-45
2021/08/21 05:48:05;;;;;;;;;;;;;;;18.08;73.67;101548.03;5097049;28;1659;-47
2021/08/21 05:50:30;;;;;;;;;;;;;;;18.09;74.06;101552.44;5097313;28;870;-44
2021/08/21 05:52:55;;;;;;;;;;;;;;;18.10;73.94;101551.44;5097090;28;1976;-42
2021/08/21 05:55:20;;;;;;;;;;;;;;;18.12;73.98;101549.47;5097282;28;1926;-45
2021/08/21 05:57:45;;;;;;;;;;;;;;;18.18;74.63;101551.63;5096811;28;1520;-43
2021/08/21 06:00:10;;;;;;;;;;;;;;;18.22;73.48;101554.94;5096931;28;1654;-43
2021/08/21 06:02:35;;;;;;;;;;;;;;;18.23;74.57;101556.66;5097106;28;1558;-46
2021/08/21 06:05:00;;;;;;;;;;;;;;;18.22;74.43;101550.41;5096768;28;1649;-47
2021/08/21 06:07:25;;;;;;;;;;;;;;;18.22;74.37;101554.94;5078577;28;1966;-46
2021/08/21 06:09:50;;;;;;;;;;;;;;;18.21;74.15;101556.78;5096513;28;2071;-43
2021/08/21 06:12:15;;;;;;;;;;;;;;;18.24;74.41;101558.38;5097380;28;1044;-44
2021/08/21 06:14:40;;;;;;;;;;;;;;;18.26;74.11;101562.66;5096913;28;1897;-45
2021/08/21 06:17:05;;;;;;;;;;;;;;;18.26;74.35;101559.09;5097180;28;997;-46
2021/08/21 06:19:31;;;;;;;;;;;;;;;18.25;74.18;101555.53;5096868;28;1665;-44
2021/08/21 06:21:56;;;;;;;;;;;;;;;18.19;75.40;101550.66;5096426;28;1906;-49
2021/08/21 06:24:21;;;;;;;;;;;;;;;18.20;74.52;101562.31;5095963;28;1729;-42
2021/08/21 06:26:46;;;;;;;;;;;;;;;18.22;74.85;101561.19;5096021;28;1828;-40
2021/08/21 06:29:11;;;;;;;;;;;;;;;18.24;74.90;101563.75;5096077;28;1806;-43
2021/08/21 06:31:36;;;;;;;;;;;;;;;18.26;75.73;101559.09;5096042;28;1824;-48
2021/08/21 06:34:01;;;;;;;;;;;;;;;18.29;74.53;101572.28;5095464;28;1893;-44
2021/08/21 06:36:26;;;;;;;;;;;;;;;18.28;74.01;101554.38;5095697;28;1464;-46
2021/08/21 06:38:51;;;;;;;;;;;;;;;18.28;74.64;101563.34;5095448;28;1633;-43
2021/08/21 06:41:16;;;;;;;;;;;;;;;18.29;74.01;101565.06;5096330;28;798;-43
2021/08/21 06:43:41;;;;;;;;;;;;;;;18.29;74.58;101561.50;5096018;28;1318;-44
2021/08/21 06:46:07;;;;;;;;;;;;;;;18.27;74.94;101561.63;5096613;28;987;-43
2021/08/21 06:48:32;;;;;;;;;;;;;;;18.26;75.53;101559.94;5096000;28;1901;-42
2021/08/21 06:50:57;;;;;;;;;;;;;;;18.25;75.54;101566.31;5095623;28;1735;-43
2021/08/21 06:53:24;;;;;;;;;;;;;;;18.26;74.68;101564.50;5096202;28;1256;-42
2021/08/21 06:55:49;;;;;;;;;;;;;;;18.28;74.45;101576.84;5096346;28;1905;-43
2021/08/21 06:58:15;;;;;;;;;;;;;;;18.29;75.69;101569.59;5095841;28;1959;-48
2021/08/21 07:00:40;;;;;;;;;;;;;;;18.30;74.67;101572.16;5096174;28;1595;-46
2021/08/21 07:03:05;;;;;;;;;;;;;;;18.30;74.93;101557.81;5095664;28;1941;-42
2021/08/21 07:05:30;;;;;;;;;;;;;;;18.30;75.03;101563.22;5096241;28;1072;-44
2021/08/21 07:07:55;;;;;;;;;;;;;;;18.31;75.16;101565.78;5095632;28;989;-44
2021/08/21 07:10:20;;;;;;;;;;;;;;;18.30;75.14;101569.47;5095919;28;917;-45
2021/08/21 07:12:45;;;;;;;;;;;;;;;18.28;75.92;101566.03;5095910;28;842;-41
2021/08/21 07:15:10;;;;;;;;;;;;;;;18.27;75.88;101561.63;5095965;28;1898;-45
2021/08/21 07:17:35;;;;;;;;;;;;;;;18.29;75.38;101550.72;5095274;28;1882;-46
2021/08/21 07:20:00;;;;;;;;;;;;;;;18.21;76.08;101558.63;5095753;28;1914;-46
2021/08/21 07:22:25;;;;;;;;;;;;;;;18.20;76.90;101559.59;5095443;28;1659;-44
2021/08/21 07:24:51;;;;;;;;;;;;;;;18.19;76.32;101561.44;5094781;28;1813;-44
2021/08/21 07:27:16;;;;;;;;;;;;;;;18.26;75.50;101564.50;5095369;28;1742;-44
2021/08/21 07:29:41;;;;;;;;;;;;;;;18.24;76.91;101556.53;5095195;28;1707;-43
2021/08/21 07:32:06;;;;;;;;;;;;;;;18.29;75.95;101559.66;5094548;28;1707;-40
2021/08/21 07:34:31;;;;;;;;;;;;;;;18.30;75.61;101561.38;5095033;28;1885;-41
2021/08/21 07:36:56;;;;;;;;;;;;;;;18.33;76.38;101561.13;5094565;28;1794;-42
2021/08/21 07:39:21;;;;;;;;;;;;;;;18.35;76.27;101559.13;5094747;28;1596;-42
2021/08/21 07:41:46;;;;;;;;;;;;;;;18.36;75.49;101562.69;5095429;28;878;-44
2021/08/21 07:44:11;;;;;;;;;;;;;;;18.36;75.54;101563.56;5095004;28;1940;-47
2021/08/21 07:46:36;;;;;;;;;;;;;;;18.37;75.14;101559.00;5095047;28;913;-46
2021/08/21 07:49:01;;;;;;;;;;;;;;;18.38;75.28;101561.56;5095669;28;842;-43
2021/08/21 07:51:26;;;;;;;;;;;;;;;18.41;75.67;101565.00;5095270;28;1009;-40
2021/08/21 07:53:51;;;;;;;;;;;;;;;18.42;75.52;101567.56;5094330;28;1909;-46
2021/08/21 07:56:17;;;;;;;;;;;;;;;18.46;75.38;101568.13;5094333;28;1723;-41
2021/08/21 07:58:42;;;;;;;;;;;;;;;18.48;76.09;101564.31;5092952;28;1879;-41
2021/08/21 08:01:07;;;;;;;;;;;;;;;18.53;76.53;101558.53;5094570;28;1811;-43
2021/08/21 08:03:32;;;;;;;;;;;;;;;18.66;79.37;101572.69;5094707;28;851;-43
2021/08/21 08:05:57;;;;;;;;;;;;;;;18.77;79.96;101572.63;5094858;28;1560;-47
2021/08/21 08:08:23;;;;;;;;;;;;;;;18.82;80.65;101564.94;5095148;28;1464;-41
2021/08/21 08:10:48;;;;;;;;;;;;;;;18.82;78.15;101572.19;5094853;28;1542;-49
2021/08/21 08:13:13;;;;;;;;;;;;;;;18.79;78.10;101576.06;5094261;28;1639;-42
2021/08/21 08:15:38;;;;;;;;;;;;;;;18.73;77.67;101568.47;5094515;28;1955;-47
2021/08/21 08:18:04;;;;;;;;;;;;;;;18.75;77.90;101574.59;5077028;28;1470;-46
2021/08/21 08:20:29;;;;;;;;;;;;;;;18.80;77.21;101572.38;5095268;28;1072;-48
2021/08/21 08:22:54;;;;;;;;;;;;;;;18.79;77.19;101573.34;5094932;28;815;-44
2021/08/21 08:25:19;;;;;;;;;;;;;;;18.77;78.64;101569.06;5094879;28;1855;-45
2021/08/21 08:27:45;;;;;;;;;;;;;;;18.72;78.00;101570.31;5094421;28;1960;-43
2021/08/21 08:30:10;;;;;;;;;;;;;;;18.68;77.85;101574.28;5094679;28;830;-45
2021/08/21 08:32:35;;;;;;;;;;;;;;;18.67;78.85;101580.66;5094272;28;1581;-46
2021/08/21 08:35:00;;;;;;;;;;;;;;;18.68;77.58;101573.41;5094536;28;1962;-48
2021/08/21 08:37:26;;;;;;;;;;;;;;;18.69;77.57;101575.13;5097311;28;1806;-48
2021/08/21 08:39:51;;;;;;;;;;;;;;;18.69;76.67;101572.44;5098937;28;2024;-45
2021/08/21 08:42:18;;;;;;;;;;;;;;;18.68;76.22;101568.88;5098690;28;794;-46
2021/08/21 08:44:43;;;;;;;;;;;;;;;18.79;75.78;101569.78;5098698;28;833;-44
2021/08/21 08:47:08;;;;;;;;;;;;;;;18.87;76.11;101573.50;5098665;28;894;-44
2021/08/21 08:49:33;;;;;;;;;;;;;;;18.91;75.34;101564.16;5098174;28;1475;-44
2021/08/21 08:51:58;;;;;;;;;;;;;;;18.96;75.10;101566.47;5090864;28;1611;-46
2021/08/21 08:54:24;;;;;;;;;;;;;;;19.02;74.92;101565.91;5095482;28;1981;-46
2021/08/21 08:56:49;;;;;;;;;;;;;;;19.08;75.03;101566.22;5080237;28;1694;-44
2021/08/21 08:59:14;;;;;;;;;;;;;;;19.10;75.05;101563.38;5098224;28;1761;-44
2021/08/21 09:01:39;;;;;;;;;;;;;;;19.16;75.03;101572.78;5098120;28;1621;-44
2021/08/21 09:04:04;;;;;;;;;;;;;;;19.19;75.38;101562.53;5097834;28;1653;-42
2021/08/21 09:06:29;;;;;;;;;;;;;;;19.24;74.97;101564.84;5098059;28;1358;-41
2021/08/21 09:08:54;;;;;;;;;;;;;;;19.41;75.34;101572.28;5097942;28;1609;-42
2021/08/21 09:11:19;;;;;;;;;;;;;;;19.43;74.97;101562.19;5097902;28;1899;-42
2021/08/21 09:13:44;;;;;;;;;;;;;;;19.46;74.57;101561.91;5097700;28;1901;-42
2021/08/21 09:16:09;;;;;;;;;;;;;;;19.48;73.80;101562.63;5097825;28;1611;-46
2021/08/21 09:18:34;;;;;;;;;;;;;;;19.53;73.71;101560.38;5078980;28;1748;-44
2021/08/21 09:20:59;;;;;;;;;;;;;;;19.56;73.15;101560.09;5097462;28;1602;-43
2021/08/21 09:23:25;;;;;;;;;;;;;;;19.52;72.68;101552.44;5096928;28;1878;-44
2021/08/21 09:25:50;;;;;;;;;;;;;;;19.55;72.64;101555.66;5079176;28;1656;-45
2021/08/21 09:28:15;;;;;;;;;;;;;;;19.64;72.76;101552.13;5095947;28;1684;-45
2021/08/21 09:30:40;;;;;;;;;;;;;;;19.67;71.66;101545.59;5097409;28;1640;-43
2021/08/21 09:33:05;;;;;;;;;;;;;;;19.67;73.15;101545.59;5097839;28;906;-44
2021/08/21 09:35:30;;;;;;;;;;;;;;;19.66;72.00;101547.44;5097409;28;1897;-38
2021/08/21 09:37:58;;;;;;;;;;;;;;;19.67;72.40;101542.91;5097091;28;2042;-46
2021/08/21 09:40:23;;;;;;;;;;;;;;;19.71;71.84;101553.25;5097688;28;799;-41
2021/08/21 09:42:48;;;;;;;;;;;;;;;19.72;71.98;101552.28;5097219;28;1630;-45
2021/08/21 09:45:13;;;;;;;;;;;;;;;19.72;72.12;101551.41;5097036;28;1648;-45
2021/08/21 09:47:39;;;;;;;;;;;;;;;19.72;72.44;101549.56;5096751;28;1691;-43
2021/08/21 09:50:04;;;;;;;;;;;;;;;19.72;71.87;101559.53;5096949;28;1779;-43
2021/08/21 09:52:29;;;;;;;;;;;;;;;19.71;72.55;101557.81;5096906;28;1885;-42
2021/08/21 09:54:54;;;;;;;;;;;;;;;19.72;71.93;101551.41;5097606;28;1983;-42
2021/08/21 09:57:19;;;;;;;;;;;;;;;19.72;71.62;101548.72;5097451;28;905;-44
2021/08/21 09:59:44;;;;;;;;;;;;;;;19.74;72.47;101552.13;5096969;28;783;-42
2021/08/21 10:02:09;;;;;;;;;;;;;;;19.82;72.01;101549.59;5096718;28;1536;-43
2021/08/21 10:04:34;;;;;;;;;;;;;;;19.83;71.88;101542.31;5096053;28;1707;-46
2021/08/21 10:07:02;;;;;;;;;;;;;;;19.81;71.68;101538.91;5096775;28;1709;-40
2021/08/21 10:09:28;;;;;;;;;;;;;;;19.81;71.94;101545.19;5097107;28;1519;-42
2021/08/21 10:11:54;;;;;;;;;;;;;;;19.82;71.97;101532.50;5096499;28;1713;-40
2021/08/21 10:14:19;;;;;;;;;;;;;;;19.84;72.57;101535.94;5097189;28;1886;-46
2021/08/21 10:16:44;;;;;;;;;;;;;;;19.90;71.40;101536.19;5096601;28;1536;-44
2021/08/21 10:19:09;;;;;;;;;;;;;;;19.97;71.56;101537.34;5096511;28;1654;-43
2021/08/21 10:21:34;;;;;;;;;;;;;;;20.00;71.05;101536.19;5096555;28;1506;-41
2021/08/21 10:24:00;;;;;;;;;;;;;;;20.00;71.49;101541.59;5096756;28;993;-40
2021/08/21 10:26:25;;;;;;;;;;;;;;;19.97;70.90;101529.22;5096437;28;1549;-47
2021/08/21 10:28:50;;;;;;;;;;;;;;;20.01;71.38;101524.38;5096489;28;1697;-42
2021/08/21 10:31:15;;;;;;;;;;;;;;;20.14;70.60;101532.19;5096827;28;1905;-46
2021/08/21 10:33:40;;;;;;;;;;;;;;;20.18;69.88;101520.94;5096397;28;1606;-42
2021/08/21 10:36:05;;;;;;;;;;;;;;;20.21;70.12;101531.47;5096282;28;1890;-44
2021/08/21 10:38:33;;;;;;;;;;;;;;;20.15;70.12;101523.94;5096648;28;1614;-47
2021/08/21 10:40:58;;;;;;;;;;;;;;;20.13;70.11;101525.06;5096150;28;1612;-44
2021/08/21 10:43:23;;;;;;;;;;;;;;;20.14;70.20;101530.34;5095820;28;1567;-47
2021/08/21 10:45:48;;;;;;;;;;;;;;;20.19;69.29;101522.66;5096419;28;1598;-42
2021/08/21 10:48:14;;;;;;;;;;;;;;;20.16;70.19;101517.50;5095936;28;2108;-44
2021/08/21 10:50:39;;;;;;;;;;;;;;;20.14;69.64;101522.22;5095931;28;1768;-45
2021/08/21 10:53:04;;;;;;;;;;;;;;;20.14;69.27;101524.06;5095244;28;1623;-44
2021/08/21 10:55:29;;;;;;;;;;;;;;;20.16;68.60;101525.63;5095108;28;1923;-41
2021/08/21 10:57:54;;;;;;;;;;;;;;;20.18;69.26;101518.22;5095149;28;1667;-44
2021/08/21 11:00:19;;;;;;;;;;;;;;;20.15;69.13;101523.94;5095706;28;1571;-41
2021/08/21 11:02:44;;;;;;;;;;;;;;;20.16;69.19;101524.78;5095728;28;1608;-43
2021/08/21 11:05:09;;;;;;;;;;;;;;;20.14;69.65;101511.38;5095854;28;925;-41
2021/08/21 11:07:34;;;;;;;;;;;;;;;20.17;69.28;101515.66;5095585;28;1714;-42
2021/08/21 11:09:59;;;;;;;;;;;;;;;20.20;69.27;101516.22;5095045;28;1494;-43
2021/08/21 11:12:25;;;;;;;;;;;;;;;20.27;69.06;101508.38;5095800;28;1902;-44
2021/08/21 11:14:50;;;;;;;;;;;;;;;20.25;68.18;101513.06;5095964;28;1969;-44
2021/08/21 11:17:15;;;;;;;;;;;;;;;20.28;68.78;101513.63;5095537;28;1742;-44
2021/08/21 11:19:40;;;;;;;;;;;;;;;20.30;68.58;101513.50;5095531;28;1527;-44
2021/08/21 11:22:05;;;;;;;;;;;;;;;20.41;67.37;101508.81;5096285;28;870;-42
2021/08/21 11:24:32;;;;;;;;;;;;;;;20.43;67.02;101506.78;5095191;28;1877;-41
2021/08/21 11:26:57;;;;;;;;;;;;;;;20.41;67.32;101499.84;5095497;28;1651;-44
2021/08/21 11:29:22;;;;;;;;;;;;;;;20.37;67.56;101510.09;5095136;28;1721;-43
2021/08/21 11:31:47;;;;;;;;;;;;;;;20.38;68.07;101508.25;5095029;28;1713;-42
2021/08/21 11:34:12;;;;;;;;;;;;;;;20.42;67.50;101504.25;5095058;28;1967;-42
2021/08/21 11:36:37;;;;;;;;;;;;;;;20.42;68.09;101501.53;5095905;28;941;-47
2021/08/21 11:39:02;;;;;;;;;;;;;;;20.40;67.78;101501.69;5094972;28;1557;-39
2021/08/21 11:41:27;;;;;;;;;;;;;;;20.41;66.79;101497.97;5095394;28;1024;-44
2021/08/21 11:43:53;;;;;;;;;;;;;;;20.45;67.39;101498.50;5095583;28;909;-43
2021/08/21 11:46:19;;;;;;;;;;;;;;;20.37;67.73;101501.13;5095737;28;787;-42
2021/08/21 11:48:44;;;;;;;;;;;;;;;20.37;67.29;101496.56;5095534;28;1048;-47
2021/08/21 11:51:09;;;;;;;;;;;;;;;20.41;68.16;101489.00;5095295;28;2089;-47
2021/08/21 11:53:34;;;;;;;;;;;;;;;20.43;68.30;101490.53;5094613;28;1844;-45
2021/08/21 11:55:59;;;;;;;;;;;;;;;20.49;68.22;101488.25;5094998;28;1971;-46
2021/08/21 11:58:24;;;;;;;;;;;;;;;20.46;68.91;101486.69;5095317;28;848;-44
2021/08/21 12:00:53;;;;;;;;;;;;;;;20.44;68.15;101486.81;5094958;28;925;-44
2021/08/21 12:03:19;;;;;;;;;;;;;;;20.51;68.40;101483.53;5095039;28;1858;-43
2021/08/21 12:05:44;;;;;;;;;;;;;;;20.54;67.52;101484.09;5094769;28;1655;-43
2021/08/21 12:08:09;;;;;;;;;;;;;;;20.56;67.00;101479.41;5076896;28;1598;-43
2021/08/21 12:10:35;;;;;;;;;;;;;;;20.59;67.36;101478.25;5095505;28;1734;-43
2021/08/21 12:13:00;;;;;;;;;;;;;;;20.58;67.29;101473.84;5098490;28;1642;-45
2021/08/21 12:15:25;;;;;;;;;;;;;;;20.55;67.60;101476.84;5098414;28;1890;-46
2021/08/21 12:17:50;;;;;;;;;;;;;;;20.62;66.51;101476.06;5098645;28;1731;-42
2021/08/21 12:20:15;;;;;;;;;;;;;;;20.58;66.22;101471.13;5098822;28;1828;-45
2021/08/21 12:22:40;;;;;;;;;;;;;;;20.57;65.95;101469.41;5098521;28;1677;-43
2021/08/21 12:25:05;;;;;;;;;;;;;;;20.57;66.91;101466.72;5098393;28;1713;-42
2021/08/21 12:27:32;;;;;;;;;;;;;;;20.60;66.11;101469.13;5098294;28;1695;-46
2021/08/21 12:29:57;;;;;;;;;;;;;;;20.65;65.34;101466.78;5098627;28;1634;-40
2021/08/21 12:32:22;;;;;;;;;;;;;;;20.62;65.57;101467.09;5098616;28;1756;-43
2021/08/21 12:34:47;;;;;;;;;;;;;;;20.61;65.72;101466.25;5098808;28;1894;-48
2021/08/21 12:37:12;;;;;;;;;;;;;;;20.60;65.19;101464.53;5098802;28;854;-45
2021/08/21 12:39:41;;;;;;;;;;;;;;;20.64;64.92;101460.53;5098878;28;1638;-46